sensor_id;sensor_type;location;lat;lon;timestamp;pressure;altitude;pressure_sealevel;temperature;humidity
19023;BME280;35226;48.606;8.858;2022-10-22T00:00:07;96093.75;;;12.94;100.00
19023;BME280;35226;48.606;8.858;2022-10-22T00:02:33;96090.81;;;13.07;100.00
19023;BME280;35226;48.606;8.858;2022-10-22T00:04:59;96090.06;;;12.88;100.00
19023;BME280;35226;48.606;8.858;2022-10-22T00:07:25;96099.63;;;12.87;100.00
19023;BME280;35226;48.606;8.858;2022-10-22T00:09:50;96095.16;;;12.99;100.00
19023;BME280;35226;48.606;8.858;2022-10-22T00:12:16;96104.03;;;13.12;100.00
19023;BME280;35226;48.606;8.858;2022-10-22T00:14:42;96105.59;;;13.04;100.00
19023;BME280;35226;48.606;8.858;2022-10-22T00:17:08;96109.78;;;13.09;100.00
19023;BME280;35226;48.606;8.858;2022-10-22T00:19:34;96117.66;;;12.92;100.00
19023;BME280;35226;48.606;8.858;2022-10-22T00:21:59;96124.41;;;13.09;100.00
19023;BME280;35226;48.606;8.858;2022-10-22T00:24:25;96131.97;;;13.09;100.00
19023;BME280;35226;48.606;8.858;2022-10-22T00:26:51;96135.06;;;13.20;100.00
19023;BME280;35226;48.606;8.858;2022-10-22T00:29:16;96137.66;;;13.14;100.00
19023;BME280;35226;48.606;8.858;2022-10-22T00:31:45;96122.72;;;13.21;100.00
19023;BME280;35226;48.606;8.858;2022-10-22T00:34:18;96116.09;;;13.18;100.00
19023;BME280;35226;48.606;8.858;2022-10-22T00:36:46;96119.03;;;13.15;100.00
19023;BME280;35226;48.606;8.858;2022-10-22T00:39:13;96121.81;;;13.15;100.00
19023;BME280;35226;48.606;8.858;2022-10-22T00:41:41;96121.81;;;13.15;100.00
19023;BME280;35226;48.606;8.858;2022-10-22T00:44:56;96110.38;;;13.13;100.00
19023;BME280;35226;48.606;8.858;2022-10-22T00:46:53;96092.94;;;13.12;100.00
19023;BME280;35226;48.606;8.858;2022-10-22T00:49:18;96097.16;;;13.17;100.00
19023;BME280;35226;48.606;8.858;2022-10-22T00:51:44;96103.44;;;13.08;100.00
19023;BME280;35226;48.606;8.858;2022-10-22T00:54:09;96096.69;;;13.09;100.00
19023;BME280;35226;48.606;8.858;2022-10-22T00:56:35;96104.03;;;13.12;100.00
19023;BME280;35226;48.606;8.858;2022-10-22T00:59:02;96099.44;;;13.09;100.00
19023;BME280;35226;48.606;8.858;2022-10-22T01:01:30;96101.00;;;13.10;100.00
19023;BME280;35226;48.606;8.858;2022-10-22T01:03:56;96091.13;;;13.18;100.00
19023;BME280;35226;48.606;8.858;2022-10-22T01:06:28;96099.78;;;13.02;100.00
19023;BME280;35226;48.606;8.858;2022-10-22T01:14:58;96059.25;;;12.95;100.00
19023;BME280;35226;48.606;8.858;2022-10-22T01:28:04;96083.13;;;13.02;100.00
19023;BME280;35226;48.606;8.858;2022-10-22T01:30:35;96084.06;;;12.90;100.00
19023;BME280;35226;48.606;8.858;2022-10-22T01:33:04;96082.50;;;12.98;100.00
19023;BME280;35226;48.606;8.858;2022-10-22T01:35:37;96088.84;;;12.62;100.00
19023;BME280;35226;48.606;8.858;2022-10-22T01:38:06;96082.84;;;12.82;100.00
19023;BME280;35226;48.606;8.858;2022-10-22T01:40:34;96088.38;;;12.64;100.00
19023;BME280;35226;48.606;8.858;2022-10-22T01:43:03;96102.25;;;12.73;100.00
19023;BME280;35226;48.606;8.858;2022-10-22T01:45:41;96102.09;;;12.76;100.00
19023;BME280;35226;48.606;8.858;2022-10-22T02:01:58;96118.44;;;12.92;100.00
19023;BME280;35226;48.606;8.858;2022-10-22T02:04:29;96119.81;;;12.79;100.00
19023;BME280;35226;48.606;8.858;2022-10-22T02:07:00;96108.56;;;13.01;100.00
19023;BME280;35226;48.606;8.858;2022-10-22T02:09:29;96095.94;;;12.90;100.00
19023;BME280;35226;48.606;8.858;2022-10-22T02:11:57;96095.16;;;12.99;100.00
19023;BME280;35226;48.606;8.858;2022-10-22T02:14:24;96091.91;;;13.01;100.00
19023;BME280;35226;48.606;8.858;2022-10-22T02:16:51;96099.47;;;13.00;100.00
19023;BME280;35226;48.606;8.858;2022-10-22T02:19:24;96098.69;;;13.00;100.00
19023;BME280;35226;48.606;8.858;2022-10-22T02:21:51;96096.06;;;12.96;100.00
19023;BME280;35226;48.606;8.858;2022-10-22T02:24:17;96090.84;;;12.98;100.00
19023;BME280;35226;48.606;8.858;2022-10-22T02:26:56;96092.22;;;12.93;100.00
19023;BME280;35226;48.606;8.858;2022-10-22T02:29:45;96111.63;;;12.84;100.00
19023;BME280;35226;48.606;8.858;2022-10-22T02:32:19;96105.78;;;12.91;100.00
19023;BME280;35226;48.606;8.858;2022-10-22T02:34:48;96120.44;;;12.92;100.00
19023;BME280;35226;48.606;8.858;2022-10-22T02:37:15;96119.16;;;12.93;100.00
19023;BME280;35226;48.606;8.858;2022-10-22T02:39:42;96124.13;;;12.89;100.00
19023;BME280;35226;48.606;8.858;2022-10-22T02:42:09;96121.94;;;12.93;100.00
19023;BME280;35226;48.606;8.858;2022-10-22T02:44:36;96123.34;;;12.79;100.00
19023;BME280;35226;48.606;8.858;2022-10-22T02:47:02;96124.13;;;12.89;100.00
19023;BME280;35226;48.606;8.858;2022-10-22T02:49:27;96125.81;;;12.86;100.00
19023;BME280;35226;48.606;8.858;2022-10-22T02:51:53;96120.56;;;12.79;100.00
19023;BME280;35226;48.606;8.858;2022-10-22T02:54:18;96122.72;;;12.57;100.00
19023;BME280;35226;48.606;8.858;2022-10-22T02:56:44;96121.81;;;12.78;100.00
19023;BME280;35226;48.606;8.858;2022-10-22T02:59:09;96101.16;;;12.88;100.00
19023;BME280;35226;48.606;8.858;2022-10-22T03:01:35;96090.84;;;12.89;100.00
19023;BME280;35226;48.606;8.858;2022-10-22T03:04:01;96084.53;;;12.88;100.00
19023;BME280;35226;48.606;8.858;2022-10-22T03:06:26;96089.78;;;12.68;100.00
19023;BME280;35226;48.606;8.858;2022-10-22T03:08:52;96073.00;;;12.72;100.00
19023;BME280;35226;48.606;8.858;2022-10-22T03:11:17;96071.78;;;12.73;100.00
19023;BME280;35226;48.606;8.858;2022-10-22T03:13:43;96075.28;;;12.64;100.00
19023;BME280;35226;48.606;8.858;2022-10-22T03:16:08;96081.31;;;12.63;100.00
19023;BME280;35226;48.606;8.858;2022-10-22T03:18:34;96087.00;;;12.68;100.00
19023;BME280;35226;48.606;8.858;2022-10-22T03:21:09;96092.09;;;12.60;100.00
19023;BME280;35226;48.606;8.858;2022-10-22T03:23:36;96091.94;;;12.82;100.00
19023;BME280;35226;48.606;8.858;2022-10-22T03:26:03;96082.97;;;12.96;100.00
19023;BME280;35226;48.606;8.858;2022-10-22T03:28:29;96081.44;;;12.86;100.00
19023;BME280;35226;48.606;8.858;2022-10-22T03:30:54;96077.91;;;12.86;100.00
19023;BME280;35226;48.606;8.858;2022-10-22T03:33:20;96081.91;;;12.85;100.00
19023;BME280;35226;48.606;8.858;2022-10-22T03:35:46;96099.31;;;12.58;100.00
19023;BME280;35226;48.606;8.858;2022-10-22T03:38:12;96104.09;;;12.57;100.00
19023;BME280;35226;48.606;8.858;2022-10-22T03:40:39;96110.41;;;12.58;100.00
19023;BME280;35226;48.606;8.858;2022-10-22T03:43:05;96124.13;;;12.80;100.00
19023;BME280;35226;48.606;8.858;2022-10-22T03:45:31;96119.03;;;12.51;100.00
19023;BME280;35226;48.606;8.858;2022-10-22T03:47:57;96120.88;;;12.72;100.00
19023;BME280;35226;48.606;8.858;2022-10-22T03:50:22;96096.72;;;12.82;100.00
19023;BME280;35226;48.606;8.858;2022-10-22T03:52:48;96098.41;;;12.79;100.00
19023;BME280;35226;48.606;8.858;2022-10-22T03:55:13;96098.53;;;12.76;100.00
19023;BME280;35226;48.606;8.858;2022-10-22T03:57:39;96089.00;;;12.77;100.00
19023;BME280;35226;48.606;8.858;2022-10-22T04:00:05;96079.75;;;12.80;100.00
19023;BME280;35226;48.606;8.858;2022-10-22T04:02:31;96093.75;;;12.85;100.00
19023;BME280;35226;48.606;8.858;2022-10-22T04:04:56;96093.16;;;12.81;100.00
19023;BME280;35226;48.606;8.858;2022-10-22T04:07:21;96103.03;;;12.82;100.00
19023;BME280;35226;48.606;8.858;2022-10-22T04:09:47;96113.19;;;12.67;100.00
19023;BME280;35226;48.606;8.858;2022-10-22T04:12:13;96117.81;;;12.70;100.00
19023;BME280;35226;48.606;8.858;2022-10-22T04:14:38;96117.94;;;12.57;100.00
19023;BME280;35226;48.606;8.858;2022-10-22T04:17:04;96113.94;;;12.77;100.00
19023;BME280;35226;48.606;8.858;2022-10-22T04:19:29;96115.19;;;12.76;100.00
19023;BME280;35226;48.606;8.858;2022-10-22T04:21:57;96111.19;;;12.77;100.00
19023;BME280;35226;48.606;8.858;2022-10-22T04:24:23;96117.03;;;12.70;100.00
19023;BME280;35226;48.606;8.858;2022-10-22T04:26:48;96118.72;;;12.76;100.00
19023;BME280;35226;48.606;8.858;2022-10-22T04:29:14;96120.13;;;12.81;100.00
19023;BME280;35226;48.606;8.858;2022-10-22T04:31:39;96119.63;;;12.73;100.00
19023;BME280;35226;48.606;8.858;2022-10-22T04:34:05;96125.19;;;12.73;100.00
19023;BME280;35226;48.606;8.858;2022-10-22T04:36:31;96135.97;;;12.71;100.00
19023;BME280;35226;48.606;8.858;2022-10-22T04:38:58;96133.97;;;12.72;100.00
19023;BME280;35226;48.606;8.858;2022-10-22T04:41:30;96126.13;;;12.70;100.00
19023;BME280;35226;48.606;8.858;2022-10-22T04:43:56;96137.66;;;12.69;100.00
19023;BME280;35226;48.606;8.858;2022-10-22T04:46:26;96129.22;;;12.72;100.00
19023;BME280;35226;48.606;8.858;2022-10-22T04:48:51;96126.44;;;12.72;100.00
19023;BME280;35226;48.606;8.858;2022-10-22T04:51:20;96128.44;;;12.63;100.00
19023;BME280;35226;48.606;8.858;2022-10-22T04:53:46;96126.25;;;12.57;100.00
19023;BME280;35226;48.606;8.858;2022-10-22T04:56:14;96129.03;;;12.76;100.00
19023;BME280;35226;48.606;8.858;2022-10-22T04:58:42;96127.03;;;12.76;100.00
19023;BME280;35226;48.606;8.858;2022-10-22T05:01:09;96118.56;;;12.71;100.00
19023;BME280;35226;48.606;8.858;2022-10-22T05:03:35;96121.19;;;12.74;100.00
19023;BME280;35226;48.606;8.858;2022-10-22T05:06:01;96119.03;;;12.78;100.00
19023;BME280;35226;48.606;8.858;2022-10-22T05:08:27;96126.72;;;12.74;100.00
19023;BME280;35226;48.606;8.858;2022-10-22T05:10:52;96128.88;;;12.61;100.00
19023;BME280;35226;48.606;8.858;2022-10-22T05:13:18;96130.13;;;12.51;100.00
19023;BME280;35226;48.606;8.858;2022-10-22T05:15:43;96129.34;;;12.41;100.00
19023;BME280;35226;48.606;8.858;2022-10-22T05:18:09;96139.63;;;12.41;100.00
19023;BME280;35226;48.606;8.858;2022-10-22T05:20:38;96134.25;;;12.46;100.00
19023;BME280;35226;48.606;8.858;2022-10-22T05:23:03;96143.63;;;12.40;100.00
19023;BME280;35226;48.606;8.858;2022-10-22T05:25:29;96150.53;;;12.35;100.00
19023;BME280;35226;48.606;8.858;2022-10-22T05:27:55;96158.06;;;12.35;100.00
19023;BME280;35226;48.606;8.858;2022-10-22T05:30:20;96149.16;;;12.31;100.00
19023;BME280;35226;48.606;8.858;2022-10-22T05:32:46;96158.69;;;12.30;100.00
19023;BME280;35226;48.606;8.858;2022-10-22T05:35:11;96149.63;;;12.29;100.00
19023;BME280;35226;48.606;8.858;2022-10-22T05:37:37;96149.47;;;12.23;100.00
19023;BME280;35226;48.606;8.858;2022-10-22T05:40:03;96144.41;;;12.31;100.00
19023;BME280;35226;48.606;8.858;2022-10-22T05:42:32;96149.31;;;12.36;100.00
19023;BME280;35226;48.606;8.858;2022-10-22T05:44:57;96149.75;;;12.35;100.00
19023;BME280;35226;48.606;8.858;2022-10-22T05:47:23;96147.00;;;12.35;100.00
19023;BME280;35226;48.606;8.858;2022-10-22T05:49:49;96153.03;;;12.33;100.00
19023;BME280;35226;48.606;8.858;2022-10-22T05:52:14;96167.03;;;12.39;100.00
19023;BME280;35226;48.606;8.858;2022-10-22T05:54:40;96178.84;;;12.30;100.00
19023;BME280;35226;48.606;8.858;2022-10-22T05:57:05;96179.78;;;12.36;100.00
19023;BME280;35226;48.606;8.858;2022-10-22T05:59:31;96186.72;;;12.32;100.00
19023;BME280;35226;48.606;8.858;2022-10-22T06:01:56;96195.97;;;12.38;100.00
19023;BME280;35226;48.606;8.858;2022-10-22T06:04:22;96185.66;;;12.47;100.00
19023;BME280;35226;48.606;8.858;2022-10-22T06:06:49;96183.66;;;12.48;100.00
19023;BME280;35226;48.606;8.858;2022-10-22T06:09:28;96194.44;;;12.46;100.00
19023;BME280;35226;48.606;8.858;2022-10-22T06:11:55;96198.91;;;12.43;100.00
19023;BME280;35226;48.606;8.858;2022-10-22T06:14:22;96202.91;;;12.42;100.00
19023;BME280;35226;48.606;8.858;2022-10-22T06:16:48;96204.75;;;12.45;100.00
19023;BME280;35226;48.606;8.858;2022-10-22T06:19:16;96199.66;;;12.44;100.00
19023;BME280;35226;48.606;8.858;2022-10-22T06:21:43;96204.75;;;12.45;100.00
19023;BME280;35226;48.606;8.858;2022-10-22T06:24:09;96205.97;;;12.44;100.00
19023;BME280;35226;48.606;8.858;2022-10-22T06:26:35;96209.22;;;12.43;100.00
19023;BME280;35226;48.606;8.858;2022-10-22T06:29:00;96211.50;;;12.35;100.00
19023;BME280;35226;48.606;8.858;2022-10-22T06:31:26;96216.38;;;12.22;100.00
19023;BME280;35226;48.606;8.858;2022-10-22T06:33:53;96227.81;;;12.33;100.00
19023;BME280;35226;48.606;8.858;2022-10-22T06:36:20;96225.66;;;12.37;100.00
19023;BME280;35226;48.606;8.858;2022-10-22T06:38:46;96233.50;;;12.30;100.00
19023;BME280;35226;48.606;8.858;2022-10-22T06:41:15;96232.25;;;12.31;100.00
19023;BME280;35226;48.606;8.858;2022-10-22T06:43:44;96236.75;;;12.37;100.00
19023;BME280;35226;48.606;8.858;2022-10-22T06:46:12;96242.59;;;12.39;100.00
19023;BME280;35226;48.606;8.858;2022-10-22T06:48:38;96257.28;;;12.18;100.00
19023;BME280;35226;48.606;8.858;2022-10-22T06:51:10;96256.44;;;12.39;100.00
19023;BME280;35226;48.606;8.858;2022-10-22T06:53:36;96265.22;;;12.38;100.00
19023;BME280;35226;48.606;8.858;2022-10-22T06:56:12;96264.59;;;12.34;100.00
19023;BME280;35226;48.606;8.858;2022-10-22T06:58:38;96272.72;;;12.28;100.00
19023;BME280;35226;48.606;8.858;2022-10-22T07:01:09;96270.47;;;12.45;100.00
19023;BME280;35226;48.606;8.858;2022-10-22T07:03:35;96275.72;;;12.43;100.00
19023;BME280;35226;48.606;8.858;2022-10-22T07:06:04;96274.78;;;12.46;100.00
19023;BME280;35226;48.606;8.858;2022-10-22T07:08:30;96279.44;;;12.49;100.00
19023;BME280;35226;48.606;8.858;2022-10-22T07:10:56;96285.75;;;12.49;100.00
19023;BME280;35226;48.606;8.858;2022-10-22T07:13:23;96274.97;;;12.51;100.00
19023;BME280;35226;48.606;8.858;2022-10-22T07:15:53;96280.09;;;12.62;100.00
19023;BME280;35226;48.606;8.858;2022-10-22T07:18:20;96286.38;;;12.53;100.00
19023;BME280;35226;48.606;8.858;2022-10-22T07:20:46;96283.03;;;12.68;100.00
19023;BME280;35226;48.606;8.858;2022-10-22T07:23:12;96288.13;;;12.69;100.00
19023;BME280;35226;48.606;8.858;2022-10-22T07:25:37;96291.38;;;12.77;100.00
19023;BME280;35226;48.606;8.858;2022-10-22T07:28:03;96296.31;;;12.82;100.00
19023;BME280;35226;48.606;8.858;2022-10-22T07:30:29;96295.22;;;12.79;100.00
19023;BME280;35226;48.606;8.858;2022-10-22T07:32:54;96300.31;;;12.81;100.00
19023;BME280;35226;48.606;8.858;2022-10-22T07:35:20;96295.88;;;12.92;100.00
19023;BME280;35226;48.606;8.858;2022-10-22T07:37:45;96293.84;;;12.84;100.00
19023;BME280;35226;48.606;8.858;2022-10-22T07:40:11;96298.78;;;12.80;100.00
19023;BME280;35226;48.606;8.858;2022-10-22T07:42:36;96301.88;;;12.82;100.00
19023;BME280;35226;48.606;8.858;2022-10-22T07:45:02;96304.63;;;12.82;100.00
19023;BME280;35226;48.606;8.858;2022-10-22T07:47:28;96311.28;;;12.93;100.00
19023;BME280;35226;48.606;8.858;2022-10-22T07:49:53;96311.28;;;12.93;100.00
19023;BME280;35226;48.606;8.858;2022-10-22T07:52:19;96312.53;;;12.92;100.00
19023;BME280;35226;48.606;8.858;2022-10-22T07:54:44;96316.78;;;12.84;100.00
19023;BME280;35226;48.606;8.858;2022-10-22T07:57:10;96315.31;;;13.02;100.00
19023;BME280;35226;48.606;8.858;2022-10-22T07:59:35;96320.38;;;13.03;100.00
19023;BME280;35226;48.606;8.858;2022-10-22T08:02:01;96327.34;;;13.08;100.00
19023;BME280;35226;48.606;8.858;2022-10-22T08:04:26;96332.41;;;13.00;100.00
19023;BME280;35226;48.606;8.858;2022-10-22T08:06:52;96337.97;;;13.09;100.00
19023;BME280;35226;48.606;8.858;2022-10-22T08:09:17;96341.34;;;13.13;100.00
19023;BME280;35226;48.606;8.858;2022-10-22T08:11:43;96344.03;;;13.26;100.00
19023;BME280;35226;48.606;8.858;2022-10-22T08:14:09;96347.13;;;13.28;100.00
19023;BME280;35226;48.606;8.858;2022-10-22T08:16:35;96349.28;;;13.33;100.00
19023;BME280;35226;48.606;8.858;2022-10-22T08:19:00;96353.94;;;13.36;100.00
19023;BME280;35226;48.606;8.858;2022-10-22T08:21:26;96351.94;;;13.46;100.00
19023;BME280;35226;48.606;8.858;2022-10-22T08:23:51;96349.00;;;13.49;100.00
19023;BME280;35226;48.606;8.858;2022-10-22T08:26:17;96341.28;;;13.53;100.00
19023;BME280;35226;48.606;8.858;2022-10-22T08:28:43;96344.56;;;13.61;100.00
19023;BME280;35226;48.606;8.858;2022-10-22T08:31:09;96338.50;;;13.71;100.00
19023;BME280;35226;48.606;8.858;2022-10-22T08:33:35;96344.38;;;13.83;100.00
19023;BME280;35226;48.606;8.858;2022-10-22T08:36:01;96346.22;;;13.95;100.00
19023;BME280;35226;48.606;8.858;2022-10-22T08:38:26;96342.97;;;14.05;100.00
19023;BME280;35226;48.606;8.858;2022-10-22T08:41:02;96352.72;;;14.10;100.00
19023;BME280;35226;48.606;8.858;2022-10-22T08:43:40;96342.97;;;14.15;100.00
19023;BME280;35226;48.606;8.858;2022-10-22T08:49:00;96348.94;;;14.40;100.00
19023;BME280;35226;48.606;8.858;2022-10-22T08:51:30;96353.25;;;14.41;100.00
19023;BME280;35226;48.606;8.858;2022-10-22T08:56:44;96340.69;;;14.64;100.00
19023;BME280;35226;48.606;8.858;2022-10-22T08:59:45;96340.78;;;14.79;100.00
19023;BME280;35226;48.606;8.858;2022-10-22T09:02:07;96346.31;;;14.88;100.00
19023;BME280;35226;48.606;8.858;2022-10-22T09:04:44;96344.38;;;15.03;100.00
19023;BME280;35226;48.606;8.858;2022-10-22T09:07:14;96349.66;;;15.25;100.00
19023;BME280;35226;48.606;8.858;2022-10-22T09:09:42;96353.63;;;15.33;100.00
19023;BME280;35226;48.606;8.858;2022-10-22T09:12:14;96352.34;;;15.43;100.00
19023;BME280;35226;48.606;8.858;2022-10-22T09:14:40;96352.06;;;15.65;100.00
19023;BME280;35226;48.606;8.858;2022-10-22T09:18:14;96346.97;;;15.64;100.00
19023;BME280;35226;48.606;8.858;2022-10-22T09:20:16;96357.72;;;15.71;100.00
19023;BME280;35226;48.606;8.858;2022-10-22T09:23:20;96357.78;;;15.85;100.00
19023;BME280;35226;48.606;8.858;2022-10-22T09:25:49;96359.28;;;15.86;100.00
19023;BME280;35226;48.606;8.858;2022-10-22T09:28:16;96357.41;;;15.93;100.00
19023;BME280;35226;48.606;8.858;2022-10-22T09:30:42;96359.63;;;16.03;100.00
19023;BME280;35226;48.606;8.858;2022-10-22T09:38:15;96361.56;;;16.26;100.00
19023;BME280;35226;48.606;8.858;2022-10-22T09:40:43;96362.75;;;16.35;100.00
19023;BME280;35226;48.606;8.858;2022-10-22T09:43:13;96360.44;;;16.48;100.00
19023;BME280;35226;48.606;8.858;2022-10-22T09:45:42;96365.72;;;16.46;100.00
19023;BME280;35226;48.606;8.858;2022-10-22T09:48:20;96365.06;;;16.51;100.00
19023;BME280;35226;48.606;8.858;2022-10-22T09:50:58;96373.63;;;16.77;100.00
19023;BME280;35226;48.606;8.858;2022-10-22T09:53:34;96364.75;;;16.93;100.00
19023;BME280;35226;48.606;8.858;2022-10-22T09:56:07;96374.16;;;16.95;100.00
19023;BME280;35226;48.606;8.858;2022-10-22T09:58:42;96368.94;;;17.18;100.00
19023;BME280;35226;48.606;8.858;2022-10-22T10:01:24;96369.94;;;17.35;100.00
19023;BME280;35226;48.606;8.858;2022-10-22T10:03:50;96374.19;;;17.30;100.00
19023;BME280;35226;48.606;8.858;2022-10-22T10:06:21;96371.72;;;17.18;100.00
19023;BME280;35226;48.606;8.858;2022-10-22T10:08:47;96365.69;;;17.39;100.00
19023;BME280;35226;48.606;8.858;2022-10-22T10:13:51;96370.69;;;17.70;100.00
19023;BME280;35226;48.606;8.858;2022-10-22T10:24:57;96389.97;;;17.68;100.00
19023;BME280;35226;48.606;8.858;2022-10-22T10:27:35;96383.28;;;17.81;100.00
19023;BME280;35226;48.606;8.858;2022-10-22T10:33:02;96383.25;;;18.01;100.00
19023;BME280;35226;48.606;8.858;2022-10-22T10:35:47;96393.56;;;18.61;100.00
19023;BME280;35226;48.606;8.858;2022-10-22T10:44:21;96390.63;;;18.70;100.00
19023;BME280;35226;48.606;8.858;2022-10-22T10:49:42;96394.34;;;18.41;100.00
19023;BME280;35226;48.606;8.858;2022-10-22T10:52:19;96391.84;;;18.43;100.00
19023;BME280;35226;48.606;8.858;2022-10-22T10:55:12;96392.28;;;18.36;100.00
19023;BME280;35226;48.606;8.858;2022-10-22T11:00:27;96391.16;;;18.48;100.00
19023;BME280;35226;48.606;8.858;2022-10-22T11:03:38;96398.75;;;18.48;100.00
19023;BME280;35226;48.606;8.858;2022-10-22T11:06:11;96389.50;;;18.36;100.00
19023;BME280;35226;48.606;8.858;2022-10-22T11:13:42;96401.44;;;18.57;100.00
19023;BME280;35226;48.606;8.858;2022-10-22T11:16:22;96392.38;;;18.68;100.00
19023;BME280;35226;48.606;8.858;2022-10-22T11:19:02;96384.50;;;18.72;100.00
19023;BME280;35226;48.606;8.858;2022-10-22T11:21:39;96382.44;;;18.67;100.00
19023;BME280;35226;48.606;8.858;2022-10-22T11:24:09;96380.13;;;18.65;100.00
19023;BME280;35226;48.606;8.858;2022-10-22T11:29:23;96387.22;;;18.92;100.00
19023;BME280;35226;48.606;8.858;2022-10-22T11:31:51;96382.00;;;19.11;100.00
19023;BME280;35226;48.606;8.858;2022-10-22T11:36:45;96382.16;;;19.28;100.00
19023;BME280;35226;48.606;8.858;2022-10-22T11:39:32;96373.63;;;19.96;100.00
19023;BME280;35226;48.606;8.858;2022-10-22T11:42:02;96383.38;;;19.58;100.00
19023;BME280;35226;48.606;8.858;2022-10-22T11:44:28;96364.63;;;20.62;100.00
19023;BME280;35226;48.606;8.858;2022-10-22T11:46:56;96377.03;;;19.63;100.00
19023;BME280;35226;48.606;8.858;2022-10-22T11:49:28;96376.25;;;19.57;100.00
19023;BME280;35226;48.606;8.858;2022-10-22T11:54:56;96376.47;;;19.59;100.00
19023;BME280;35226;48.606;8.858;2022-10-22T11:57:37;96369.81;;;20.10;100.00
19023;BME280;35226;48.606;8.858;2022-10-22T12:00:39;96367.94;;;20.83;100.00
19023;BME280;35226;48.606;8.858;2022-10-22T12:03:17;96373.34;;;19.94;100.00
19023;BME280;35226;48.606;8.858;2022-10-22T12:05:45;96379.13;;;19.79;100.00
19023;BME280;35226;48.606;8.858;2022-10-22T12:08:16;96368.59;;;19.57;100.00
19023;BME280;35226;48.606;8.858;2022-10-22T12:13:26;96371.28;;;19.89;100.00
19023;BME280;35226;48.606;8.858;2022-10-22T12:15:56;96365.09;;;19.74;100.00
19023;BME280;35226;48.606;8.858;2022-10-22T12:18:31;96362.03;;;19.72;100.00
19023;BME280;35226;48.606;8.858;2022-10-22T12:20:57;96362.75;;;19.61;100.00
19023;BME280;35226;48.606;8.858;2022-10-22T12:23:31;96372.81;;;19.42;100.00
19023;BME280;35226;48.606;8.858;2022-10-22T12:25:58;96368.59;;;19.57;100.00
19023;BME280;35226;48.606;8.858;2022-10-22T12:28:24;96373.06;;;19.38;100.00
19023;BME280;35226;48.606;8.858;2022-10-22T12:30:49;96366.75;;;19.49;100.00
19023;BME280;35226;48.606;8.858;2022-10-22T12:33:21;96367.19;;;19.42;100.00
19023;BME280;35226;48.606;8.858;2022-10-22T12:35:47;96358.63;;;19.51;100.00
19023;BME280;35226;48.606;8.858;2022-10-22T12:38:18;96364.88;;;19.35;100.00
19023;BME280;35226;48.606;8.858;2022-10-22T12:40:44;96373.47;;;19.26;100.00
19023;BME280;35226;48.606;8.858;2022-10-22T12:43:13;96373.81;;;19.39;100.00
19023;BME280;35226;48.606;8.858;2022-10-22T12:45:42;96368.44;;;19.35;100.00
19023;BME280;35226;48.606;8.858;2022-10-22T12:48:22;96365.59;;;19.30;100.00
19023;BME280;35226;48.606;8.858;2022-10-22T12:50:51;96363.25;;;19.22;100.00
19023;BME280;35226;48.606;8.858;2022-10-22T12:53:32;96362.84;;;19.35;100.00
19023;BME280;35226;48.606;8.858;2022-10-22T12:56:10;96359.97;;;19.30;100.00
19023;BME280;35226;48.606;8.858;2022-10-22T13:01:05;96356.97;;;19.33;100.00
19023;BME280;35226;48.606;8.858;2022-10-22T13:03:37;96357.53;;;19.43;100.00
19023;BME280;35226;48.606;8.858;2022-10-22T13:06:32;96353.19;;;19.42;100.00
19023;BME280;35226;48.606;8.858;2022-10-22T13:09:06;96344.16;;;19.58;100.00
19023;BME280;35226;48.606;8.858;2022-10-22T13:11:40;96348.28;;;19.74;100.00
19023;BME280;35226;48.606;8.858;2022-10-22T13:14:29;96353.16;;;19.36;100.00
19023;BME280;35226;48.606;8.858;2022-10-22T13:17:05;96351.22;;;19.48;100.00
19023;BME280;35226;48.606;8.858;2022-10-22T13:19:59;96355.75;;;19.88;99.46
19023;BME280;35226;48.606;8.858;2022-10-22T13:22:30;96349.72;;;19.52;100.00
19023;BME280;35226;48.606;8.858;2022-10-22T13:24:59;96348.56;;;19.33;100.00
19023;BME280;35226;48.606;8.858;2022-10-22T13:27:28;96352.09;;;19.28;100.00
19023;BME280;35226;48.606;8.858;2022-10-22T13:30:09;96352.91;;;19.40;100.00
19023;BME280;35226;48.606;8.858;2022-10-22T13:32:35;96349.94;;;19.49;100.00
19023;BME280;35226;48.606;8.858;2022-10-22T13:35:01;96342.41;;;19.66;100.00
19023;BME280;35226;48.606;8.858;2022-10-22T13:37:30;96349.22;;;19.54;96.96
19023;BME280;35226;48.606;8.858;2022-10-22T13:39:57;96347.69;;;19.53;100.00
19023;BME280;35226;48.606;8.858;2022-10-22T13:42:22;96352.78;;;19.60;100.00
19023;BME280;35226;48.606;8.858;2022-10-22T13:44:48;96347.50;;;19.68;100.00
19023;BME280;35226;48.606;8.858;2022-10-22T13:47:28;96342.34;;;19.55;100.00
19023;BME280;35226;48.606;8.858;2022-10-22T13:49:56;96344.38;;;19.54;100.00
19023;BME280;35226;48.606;8.858;2022-10-22T13:52:36;96348.22;;;19.63;100.00
19023;BME280;35226;48.606;8.858;2022-10-22T13:55:32;96358.13;;;19.52;99.69
19023;BME280;35226;48.606;8.858;2022-10-22T13:58:13;96348.91;;;19.46;100.00
19023;BME280;35226;48.606;8.858;2022-10-22T14:00:41;96342.13;;;19.58;100.00
19023;BME280;35226;48.606;8.858;2022-10-22T14:03:15;96344.81;;;19.47;100.00
19023;BME280;35226;48.606;8.858;2022-10-22T14:05:42;96347.69;;;19.53;100.00
19023;BME280;35226;48.606;8.858;2022-10-22T14:08:18;96348.00;;;19.66;98.13
19023;BME280;35226;48.606;8.858;2022-10-22T14:10:45;96346.19;;;19.57;100.00
19023;BME280;35226;48.606;8.858;2022-10-22T14:13:12;96343.81;;;20.04;97.17
19023;BME280;35226;48.606;8.858;2022-10-22T14:15:38;96344.00;;;19.84;100.00
19023;BME280;35226;48.606;8.858;2022-10-22T14:18:06;96341.84;;;19.62;100.00
19023;BME280;35226;48.606;8.858;2022-10-22T14:20:35;96344.44;;;19.71;98.41
19023;BME280;35226;48.606;8.858;2022-10-22T14:23:12;96334.81;;;19.78;99.35
19023;BME280;35226;48.606;8.858;2022-10-22T14:25:38;96331.69;;;21.02;93.64